This is the latest recevied weather packets stored in our database for station/object N5CSU. If no packets are shown the sender has not sent any weather packets the latest 10 day(s).
| Time | Temp. | Humidity | Pressure | Rain* | Wind** | Luminosity | Snow |
|---|---|---|---|---|---|---|---|
| 1778106391 | 16.11° C | 80% | 1013.9 hPa | 0 mm | - | 9 W/m² | - |
| 1778106087 | 16.11° C | 81% | 1014 hPa | 0 mm | - | 7 W/m² | - |
| 1778105785 | 16.11° C | 81% | 1013.9 hPa | 0 mm | - | 7 W/m² | - |
| 1778105483 | 16.11° C | 81% | 1014 hPa | 0 mm | - | 8 W/m² | - |
| 1778105180 | 16.11° C | 80% | 1013.7 hPa | 0 mm | - | 11 W/m² | - |
| 1778104875 | 16.11° C | 80% | 1013.5 hPa | 0 mm | - | 12 W/m² | - |
| 1778104572 | 16.11° C | 81% | 1013.6 hPa | 0 mm | - | 7 W/m² | - |
| 1778104267 | 16.11° C | 81% | 1013.2 hPa | 0 mm | - | 16 W/m² | - |
| 1778103964 | 16.11° C | 81% | 1013.5 hPa | 0 mm | - | 9 W/m² | - |
| 1778103662 | 16.11° C | 81% | 1013.6 hPa | 0 mm | - | 9 W/m² | - |
| 1778103360 | 16.11° C | 80% | 1013.6 hPa | 0 mm | - | 8 W/m² | - |
| 1778103051 | 16.11° C | 80% | 1013.8 hPa | 0 mm | - | 10 W/m² | - |
| 1778102748 | 16.11° C | 79% | 1013.7 hPa | 0 mm | - | 8 W/m² | - |
| 1778102443 | 16.11° C | 80% | 1013.6 hPa | 0 mm | - | 14 W/m² | - |
| 1778102139 | 16.11° C | 80% | 1013.7 hPa | 0 mm | - | 9 W/m² | - |
| 1778101837 | 16.11° C | 80% | 1013.9 hPa | 0 mm | - | 10 W/m² | - |
| 1778101533 | 16.11° C | 79% | 1013.7 hPa | 0 mm | - | 18 W/m² | - |
| 1778101230 | 16.11° C | 80% | 1013.9 hPa | 0 mm | - | 16 W/m² | - |
| 1778100927 | 16.11° C | 79% | 1013.8 hPa | 0 mm | - | 20 W/m² | - |
| 1778100622 | 16.11° C | 81% | 1013.9 hPa | 0 mm | - | 24 W/m² | - |
| 1778100320 | 16.11° C | 80% | 1014.3 hPa | 0 mm | - | 11 W/m² | - |
| 1778100017 | 16.11° C | 80% | 1014.3 hPa | 0 mm | - | 12 W/m² | - |
| 1778099715 | 16.11° C | 79% | 1014.2 hPa | 0 mm | - | 11 W/m² | - |
| 1778099410 | 16.11° C | 80% | 1014.2 hPa | 0 mm | - | 18 W/m² | - |
| 1778099108 | 16.11° C | 78% | 1014.1 hPa | 0 mm | - | 19 W/m² | - |
* Rain latest hour (hover to see other rain measurements)
** Current wind speed in m/s (hover to see current wind gust speed)